Auburntown, Tennessee
Current Conditions -  °F | °C
As of 8:53 PM on Friday 19 Dec 2014 (Local Time) from KBNA Reporting Station
Overcast Overcast  
Wind Chill: 33°   Ceiling: 14000
Heat Index: 37°   Visibility: 10mi
Dew Point: 28°   Wind: 5mph
Humidity: 70%   Direction: 50°NE
Pressure: 30.24"   Gusts: NA
Location:  35.95°N, 86.1°W
Report Text: KBNA 200253Z 05004KT 10SM OVC140 03/M02 A3024 RMK AO2 SLP244 T00281022 55001
Loading
Personal Weather Stations






























Interactive Weather Map New forecast layout! Learn more

10-Day Weather Forecast

Advertisements
Track Severe Weather on mobile